sensor_id;sensor_type;location;lat;lon;timestamp;P1;durP1;ratioP1;P2;durP2;ratioP2
46507;SDS011;32223;53.654;10.014;2023-11-19T00:01:55;11.68;;;7.03;;
46507;SDS011;32223;53.654;10.014;2023-11-19T00:04:21;12.98;;;6.65;;
46507;SDS011;32223;53.654;10.014;2023-11-19T00:06:48;12.65;;;7.28;;
46507;SDS011;32223;53.654;10.014;2023-11-19T00:09:14;9.40;;;5.47;;
46507;SDS011;32223;53.654;10.014;2023-11-19T00:11:41;10.65;;;6.45;;
46507;SDS011;32223;53.654;10.014;2023-11-19T00:14:07;10.50;;;5.65;;
46507;SDS011;32223;53.654;10.014;2023-11-19T00:16:33;9.70;;;5.28;;
46507;SDS011;32223;53.654;10.014;2023-11-19T00:18:59;10.50;;;5.15;;
46507;SDS011;32223;53.654;10.014;2023-11-19T00:21:25;9.10;;;5.28;;
46507;SDS011;32223;53.654;10.014;2023-11-19T00:23:53;7.82;;;5.13;;
46507;SDS011;32223;53.654;10.014;2023-11-19T00:26:19;8.90;;;5.00;;
46507;SDS011;32223;53.654;10.014;2023-11-19T00:28:45;8.30;;;5.20;;
46507;SDS011;32223;53.654;10.014;2023-11-19T00:31:12;7.75;;;4.50;;
46507;SDS011;32223;53.654;10.014;2023-11-19T00:33:38;8.48;;;5.05;;
46507;SDS011;32223;53.654;10.014;2023-11-19T00:36:04;10.75;;;4.90;;
46507;SDS011;32223;53.654;10.014;2023-11-19T00:38:30;9.00;;;4.80;;
46507;SDS011;32223;53.654;10.014;2023-11-19T00:40:56;9.52;;;4.85;;
46507;SDS011;32223;53.654;10.014;2023-11-19T00:43:22;8.30;;;4.43;;
46507;SDS011;32223;53.654;10.014;2023-11-19T00:45:47;6.85;;;3.97;;
46507;SDS011;32223;53.654;10.014;2023-11-19T00:48:15;6.53;;;3.58;;
46507;SDS011;32223;53.654;10.014;2023-11-19T00:50:41;6.97;;;3.72;;
46507;SDS011;32223;53.654;10.014;2023-11-19T00:53:09;6.32;;;4.32;;
46507;SDS011;32223;53.654;10.014;2023-11-19T00:55:35;7.80;;;4.75;;
46507;SDS011;32223;53.654;10.014;2023-11-19T00:58:00;5.88;;;3.40;;
46507;SDS011;32223;53.654;10.014;2023-11-19T01:00:26;6.65;;;3.78;;
46507;SDS011;32223;53.654;10.014;2023-11-19T01:02:52;5.05;;;3.15;;
46507;SDS011;32223;53.654;10.014;2023-11-19T01:05:18;5.13;;;2.83;;
46507;SDS011;32223;53.654;10.014;2023-11-19T01:07:47;5.72;;;2.95;;
46507;SDS011;32223;53.654;10.014;2023-11-19T01:10:13;6.93;;;4.45;;
46507;SDS011;32223;53.654;10.014;2023-11-19T01:12:40;7.07;;;4.32;;
46507;SDS011;32223;53.654;10.014;2023-11-19T01:15:07;3.90;;;2.50;;
46507;SDS011;32223;53.654;10.014;2023-11-19T01:17:33;4.60;;;2.85;;
46507;SDS011;32223;53.654;10.014;2023-11-19T01:19:58;5.55;;;3.10;;
46507;SDS011;32223;53.654;10.014;2023-11-19T01:22:24;4.82;;;2.90;;
46507;SDS011;32223;53.654;10.014;2023-11-19T01:24:50;4.05;;;2.28;;
46507;SDS011;32223;53.654;10.014;2023-11-19T01:27:17;4.25;;;2.40;;
46507;SDS011;32223;53.654;10.014;2023-11-19T01:29:42;3.80;;;2.45;;
46507;SDS011;32223;53.654;10.014;2023-11-19T01:32:08;2.92;;;1.98;;
46507;SDS011;32223;53.654;10.014;2023-11-19T01:34:34;3.80;;;2.28;;
46507;SDS011;32223;53.654;10.014;2023-11-19T01:37:00;3.63;;;2.35;;
46507;SDS011;32223;53.654;10.014;2023-11-19T01:39:26;4.38;;;2.58;;
46507;SDS011;32223;53.654;10.014;2023-11-19T01:41:52;3.38;;;2.08;;
46507;SDS011;32223;53.654;10.014;2023-11-19T01:44:19;3.47;;;2.25;;
46507;SDS011;32223;53.654;10.014;2023-11-19T01:46:45;4.05;;;2.30;;
46507;SDS011;32223;53.654;10.014;2023-11-19T01:49:14;2.92;;;1.88;;
46507;SDS011;32223;53.654;10.014;2023-11-19T01:51:40;3.20;;;1.83;;
46507;SDS011;32223;53.654;10.014;2023-11-19T01:54:07;3.38;;;1.80;;
46507;SDS011;32223;53.654;10.014;2023-11-19T01:56:33;3.47;;;1.90;;
46507;SDS011;32223;53.654;10.014;2023-11-19T01:58:59;2.88;;;1.98;;
46507;SDS011;32223;53.654;10.014;2023-11-19T02:01:25;2.75;;;1.70;;
46507;SDS011;32223;53.654;10.014;2023-11-19T02:03:52;2.30;;;1.40;;
46507;SDS011;32223;53.654;10.014;2023-11-19T02:06:18;2.70;;;1.70;;
46507;SDS011;32223;53.654;10.014;2023-11-19T02:08:43;2.22;;;1.70;;
46507;SDS011;32223;53.654;10.014;2023-11-19T02:11:09;2.65;;;1.40;;
46507;SDS011;32223;53.654;10.014;2023-11-19T02:13:36;3.50;;;1.60;;
46507;SDS011;32223;53.654;10.014;2023-11-19T02:16:03;2.47;;;1.27;;
46507;SDS011;32223;53.654;10.014;2023-11-19T02:18:29;1.95;;;1.08;;
46507;SDS011;32223;53.654;10.014;2023-11-19T02:20:58;1.60;;;1.17;;
46507;SDS011;32223;53.654;10.014;2023-11-19T02:23:26;2.38;;;1.27;;
46507;SDS011;32223;53.654;10.014;2023-11-19T02:28:51;2.95;;;2.08;;
46507;SDS011;32223;53.654;10.014;2023-11-19T02:31:17;2.30;;;1.30;;
46507;SDS011;32223;53.654;10.014;2023-11-19T02:33:44;2.70;;;1.45;;
46507;SDS011;32223;53.654;10.014;2023-11-19T02:36:10;4.78;;;1.50;;
46507;SDS011;32223;53.654;10.014;2023-11-19T02:38:36;2.58;;;0.90;;
46507;SDS011;32223;53.654;10.014;2023-11-19T02:41:04;2.22;;;1.10;;
46507;SDS011;32223;53.654;10.014;2023-11-19T02:43:34;2.55;;;1.35;;
46507;SDS011;32223;53.654;10.014;2023-11-19T02:46:03;2.15;;;1.08;;
46507;SDS011;32223;53.654;10.014;2023-11-19T02:48:33;2.25;;;1.33;;
46507;SDS011;32223;53.654;10.014;2023-11-19T02:51:00;2.42;;;1.30;;
46507;SDS011;32223;53.654;10.014;2023-11-19T02:53:29;2.65;;;1.40;;
46507;SDS011;32223;53.654;10.014;2023-11-19T02:55:55;2.25;;;1.33;;
46507;SDS011;32223;53.654;10.014;2023-11-19T02:58:27;3.17;;;1.17;;
46507;SDS011;32223;53.654;10.014;2023-11-19T03:00:53;2.92;;;1.52;;
46507;SDS011;32223;53.654;10.014;2023-11-19T03:03:23;3.80;;;1.27;;
46507;SDS011;32223;53.654;10.014;2023-11-19T03:05:53;2.22;;;1.40;;
46507;SDS011;32223;53.654;10.014;2023-11-19T03:08:20;2.55;;;1.60;;
46507;SDS011;32223;53.654;10.014;2023-11-19T03:10:47;1.98;;;1.40;;
46507;SDS011;32223;53.654;10.014;2023-11-19T03:13:13;2.97;;;1.50;;
46507;SDS011;32223;53.654;10.014;2023-11-19T03:15:39;2.78;;;1.70;;
46507;SDS011;32223;53.654;10.014;2023-11-19T03:18:05;3.13;;;1.85;;
46507;SDS011;32223;53.654;10.014;2023-11-19T03:20:31;3.03;;;1.95;;
46507;SDS011;32223;53.654;10.014;2023-11-19T03:22:57;2.50;;;1.80;;
46507;SDS011;32223;53.654;10.014;2023-11-19T03:25:26;3.92;;;1.60;;
46507;SDS011;32223;53.654;10.014;2023-11-19T03:27:58;4.05;;;2.63;;
46507;SDS011;32223;53.654;10.014;2023-11-19T03:30:24;3.83;;;2.75;;
46507;SDS011;32223;53.654;10.014;2023-11-19T03:32:50;3.15;;;2.22;;
46507;SDS011;32223;53.654;10.014;2023-11-19T03:35:16;4.93;;;3.13;;
46507;SDS011;32223;53.654;10.014;2023-11-19T03:37:41;4.10;;;2.30;;
46507;SDS011;32223;53.654;10.014;2023-11-19T03:40:08;3.92;;;2.70;;
46507;SDS011;32223;53.654;10.014;2023-11-19T03:42:35;4.07;;;2.70;;
46507;SDS011;32223;53.654;10.014;2023-11-19T03:45:01;3.92;;;2.15;;
46507;SDS011;32223;53.654;10.014;2023-11-19T03:47:28;4.95;;;2.50;;
46507;SDS011;32223;53.654;10.014;2023-11-19T03:49:54;5.03;;;2.88;;
46507;SDS011;32223;53.654;10.014;2023-11-19T03:52:19;4.60;;;2.63;;
46507;SDS011;32223;53.654;10.014;2023-11-19T03:54:45;3.90;;;2.75;;
46507;SDS011;32223;53.654;10.014;2023-11-19T03:57:11;5.50;;;2.63;;
46507;SDS011;32223;53.654;10.014;2023-11-19T03:59:37;4.68;;;3.42;;
46507;SDS011;32223;53.654;10.014;2023-11-19T04:02:03;5.90;;;3.35;;
46507;SDS011;32223;53.654;10.014;2023-11-19T04:04:29;5.25;;;3.75;;
46507;SDS011;32223;53.654;10.014;2023-11-19T04:06:55;5.97;;;4.03;;
46507;SDS011;32223;53.654;10.014;2023-11-19T04:09:21;5.57;;;3.95;;
46507;SDS011;32223;53.654;10.014;2023-11-19T04:11:46;9.57;;;4.28;;
46507;SDS011;32223;53.654;10.014;2023-11-19T04:14:13;6.15;;;4.80;;
46507;SDS011;32223;53.654;10.014;2023-11-19T04:16:39;5.53;;;3.85;;
46507;SDS011;32223;53.654;10.014;2023-11-19T04:19:05;8.82;;;4.80;;
46507;SDS011;32223;53.654;10.014;2023-11-19T04:21:31;8.27;;;5.25;;
46507;SDS011;32223;53.654;10.014;2023-11-19T04:23:57;10.50;;;5.72;;
46507;SDS011;32223;53.654;10.014;2023-11-19T04:26:23;8.48;;;4.45;;
46507;SDS011;32223;53.654;10.014;2023-11-19T04:28:48;7.75;;;4.90;;
46507;SDS011;32223;53.654;10.014;2023-11-19T04:31:14;7.57;;;4.78;;
46507;SDS011;32223;53.654;10.014;2023-11-19T04:33:41;9.25;;;4.60;;
46507;SDS011;32223;53.654;10.014;2023-11-19T04:36:07;6.93;;;5.00;;
46507;SDS011;32223;53.654;10.014;2023-11-19T04:38:33;7.18;;;4.63;;
46507;SDS011;32223;53.654;10.014;2023-11-19T04:40:59;8.60;;;5.25;;
46507;SDS011;32223;53.654;10.014;2023-11-19T04:43:25;9.38;;;5.40;;
46507;SDS011;32223;53.654;10.014;2023-11-19T04:45:51;8.65;;;5.80;;
46507;SDS011;32223;53.654;10.014;2023-11-19T04:48:16;8.52;;;5.80;;
46507;SDS011;32223;53.654;10.014;2023-11-19T04:50:42;10.10;;;6.30;;
46507;SDS011;32223;53.654;10.014;2023-11-19T04:53:08;12.68;;;6.85;;
46507;SDS011;32223;53.654;10.014;2023-11-19T04:55:33;9.75;;;6.35;;
46507;SDS011;32223;53.654;10.014;2023-11-19T04:57:59;12.27;;;7.10;;
46507;SDS011;32223;53.654;10.014;2023-11-19T05:00:24;11.32;;;6.88;;
46507;SDS011;32223;53.654;10.014;2023-11-19T05:02:50;11.27;;;7.30;;
46507;SDS011;32223;53.654;10.014;2023-11-19T05:05:16;12.27;;;8.02;;
46507;SDS011;32223;53.654;10.014;2023-11-19T05:07:42;14.20;;;8.40;;
46507;SDS011;32223;53.654;10.014;2023-11-19T05:10:08;15.45;;;8.63;;
46507;SDS011;32223;53.654;10.014;2023-11-19T05:12:34;15.35;;;8.02;;
46507;SDS011;32223;53.654;10.014;2023-11-19T05:14:59;14.48;;;8.07;;
46507;SDS011;32223;53.654;10.014;2023-11-19T05:17:25;19.40;;;8.82;;
46507;SDS011;32223;53.654;10.014;2023-11-19T05:19:51;15.05;;;8.93;;
46507;SDS011;32223;53.654;10.014;2023-11-19T05:22:16;16.27;;;9.00;;
46507;SDS011;32223;53.654;10.014;2023-11-19T05:24:42;15.35;;;9.00;;
46507;SDS011;32223;53.654;10.014;2023-11-19T05:27:08;16.35;;;9.10;;
46507;SDS011;32223;53.654;10.014;2023-11-19T05:29:36;19.48;;;10.45;;
46507;SDS011;32223;53.654;10.014;2023-11-19T05:32:04;17.45;;;10.55;;
46507;SDS011;32223;53.654;10.014;2023-11-19T05:34:30;20.25;;;10.00;;
46507;SDS011;32223;53.654;10.014;2023-11-19T05:36:55;20.55;;;10.60;;
46507;SDS011;32223;53.654;10.014;2023-11-19T05:39:22;17.80;;;9.70;;
46507;SDS011;32223;53.654;10.014;2023-11-19T05:41:48;21.83;;;10.52;;
46507;SDS011;32223;53.654;10.014;2023-11-19T05:44:13;18.77;;;10.60;;
46507;SDS011;32223;53.654;10.014;2023-11-19T05:46:39;22.30;;;11.70;;
46507;SDS011;32223;53.654;10.014;2023-11-19T05:49:07;28.55;;;10.20;;
46507;SDS011;32223;53.654;10.014;2023-11-19T05:51:36;23.70;;;12.75;;
46507;SDS011;32223;53.654;10.014;2023-11-19T05:54:03;24.00;;;11.93;;
46507;SDS011;32223;53.654;10.014;2023-11-19T05:56:31;20.23;;;11.73;;
46507;SDS011;32223;53.654;10.014;2023-11-19T05:58:57;24.30;;;12.32;;
46507;SDS011;32223;53.654;10.014;2023-11-19T06:01:26;21.50;;;11.13;;
46507;SDS011;32223;53.654;10.014;2023-11-19T06:03:51;25.00;;;12.27;;
46507;SDS011;32223;53.654;10.014;2023-11-19T06:06:17;27.80;;;12.68;;
46507;SDS011;32223;53.654;10.014;2023-11-19T06:08:43;28.38;;;13.70;;
46507;SDS011;32223;53.654;10.014;2023-11-19T06:11:10;36.47;;;14.25;;
46507;SDS011;32223;53.654;10.014;2023-11-19T06:13:39;39.20;;;14.25;;
46507;SDS011;32223;53.654;10.014;2023-11-19T06:16:05;38.92;;;14.55;;
46507;SDS011;32223;53.654;10.014;2023-11-19T06:18:31;40.08;;;15.95;;
46507;SDS011;32223;53.654;10.014;2023-11-19T06:20:57;39.80;;;16.00;;
46507;SDS011;32223;53.654;10.014;2023-11-19T06:23:23;35.55;;;15.52;;
46507;SDS011;32223;53.654;10.014;2023-11-19T06:25:48;33.80;;;16.73;;
46507;SDS011;32223;53.654;10.014;2023-11-19T06:28:14;47.95;;;17.98;;
46507;SDS011;32223;53.654;10.014;2023-11-19T06:30:39;45.15;;;17.13;;
46507;SDS011;32223;53.654;10.014;2023-11-19T06:33:06;40.83;;;14.93;;
46507;SDS011;32223;53.654;10.014;2023-11-19T06:35:32;43.45;;;16.88;;
46507;SDS011;32223;53.654;10.014;2023-11-19T06:38:03;48.33;;;16.23;;
46507;SDS011;32223;53.654;10.014;2023-11-19T06:40:29;44.85;;;15.27;;
46507;SDS011;32223;53.654;10.014;2023-11-19T06:42:56;42.38;;;15.98;;
46507;SDS011;32223;53.654;10.014;2023-11-19T06:45:22;38.30;;;15.40;;
46507;SDS011;32223;53.654;10.014;2023-11-19T06:47:47;42.65;;;15.57;;
46507;SDS011;32223;53.654;10.014;2023-11-19T06:50:13;37.67;;;15.05;;
46507;SDS011;32223;53.654;10.014;2023-11-19T06:52:40;44.80;;;16.13;;
46507;SDS011;32223;53.654;10.014;2023-11-19T06:55:05;32.28;;;12.02;;
46507;SDS011;32223;53.654;10.014;2023-11-19T06:57:31;44.35;;;14.77;;
46507;SDS011;32223;53.654;10.014;2023-11-19T06:59:57;38.50;;;13.48;;
46507;SDS011;32223;53.654;10.014;2023-11-19T07:02:23;30.30;;;12.20;;
46507;SDS011;32223;53.654;10.014;2023-11-19T07:04:50;30.65;;;11.70;;
46507;SDS011;32223;53.654;10.014;2023-11-19T07:07:16;33.25;;;9.57;;
46507;SDS011;32223;53.654;10.014;2023-11-19T07:09:41;29.88;;;10.43;;
46507;SDS011;32223;53.654;10.014;2023-11-19T07:12:07;30.98;;;9.70;;
46507;SDS011;32223;53.654;10.014;2023-11-19T07:14:34;24.23;;;9.27;;
46507;SDS011;32223;53.654;10.014;2023-11-19T07:16:59;35.92;;;9.80;;
46507;SDS011;32223;53.654;10.014;2023-11-19T07:19:25;30.05;;;9.63;;
46507;SDS011;32223;53.654;10.014;2023-11-19T07:21:51;20.90;;;9.07;;
46507;SDS011;32223;53.654;10.014;2023-11-19T07:24:19;32.55;;;9.68;;
46507;SDS011;32223;53.654;10.014;2023-11-19T07:26:46;29.27;;;7.90;;
46507;SDS011;32223;53.654;10.014;2023-11-19T07:29:13;38.58;;;9.85;;
46507;SDS011;32223;53.654;10.014;2023-11-19T07:31:40;38.13;;;9.40;;
46507;SDS011;32223;53.654;10.014;2023-11-19T07:34:05;23.30;;;7.00;;
46507;SDS011;32223;53.654;10.014;2023-11-19T07:36:31;22.10;;;6.63;;
46507;SDS011;32223;53.654;10.014;2023-11-19T07:38:58;23.52;;;5.78;;
46507;SDS011;32223;53.654;10.014;2023-11-19T07:41:24;22.33;;;5.05;;
46507;SDS011;32223;53.654;10.014;2023-11-19T07:43:50;31.08;;;6.20;;
46507;SDS011;32223;53.654;10.014;2023-11-19T07:46:17;24.58;;;5.68;;
46507;SDS011;32223;53.654;10.014;2023-11-19T07:48:44;34.92;;;6.82;;
46507;SDS011;32223;53.654;10.014;2023-11-19T07:51:12;22.15;;;5.28;;
46507;SDS011;32223;53.654;10.014;2023-11-19T07:53:38;23.95;;;5.85;;
46507;SDS011;32223;53.654;10.014;2023-11-19T07:56:04;25.17;;;6.55;;
46507;SDS011;32223;53.654;10.014;2023-11-19T07:58:30;26.98;;;5.07;;
46507;SDS011;32223;53.654;10.014;2023-11-19T08:00:56;21.08;;;6.07;;
46507;SDS011;32223;53.654;10.014;2023-11-19T08:03:22;22.27;;;4.72;;
46507;SDS011;32223;53.654;10.014;2023-11-19T08:05:48;16.00;;;5.05;;
46507;SDS011;32223;53.654;10.014;2023-11-19T08:08:13;32.20;;;5.85;;
46507;SDS011;32223;53.654;10.014;2023-11-19T08:10:40;19.25;;;4.68;;
46507;SDS011;32223;53.654;10.014;2023-11-19T08:13:06;19.58;;;5.38;;
46507;SDS011;32223;53.654;10.014;2023-11-19T08:15:32;26.80;;;6.15;;
46507;SDS011;32223;53.654;10.014;2023-11-19T08:17:58;22.27;;;4.25;;
46507;SDS011;32223;53.654;10.014;2023-11-19T08:20:23;24.55;;;4.50;;
46507;SDS011;32223;53.654;10.014;2023-11-19T08:22:49;23.45;;;5.03;;
46507;SDS011;32223;53.654;10.014;2023-11-19T08:25:15;22.23;;;5.85;;
46507;SDS011;32223;53.654;10.014;2023-11-19T08:27:40;23.88;;;4.30;;
46507;SDS011;32223;53.654;10.014;2023-11-19T08:30:06;24.33;;;5.22;;
46507;SDS011;32223;53.654;10.014;2023-11-19T08:32:32;30.17;;;6.72;;
46507;SDS011;32223;53.654;10.014;2023-11-19T08:34:59;21.63;;;6.05;;
46507;SDS011;32223;53.654;10.014;2023-11-19T08:37:25;19.73;;;4.40;;
46507;SDS011;32223;53.654;10.014;2023-11-19T08:39:50;24.55;;;4.25;;
46507;SDS011;32223;53.654;10.014;2023-11-19T08:42:16;28.20;;;4.63;;
46507;SDS011;32223;53.654;10.014;2023-11-19T08:44:51;24.83;;;5.75;;
46507;SDS011;32223;53.654;10.014;2023-11-19T08:47:19;22.30;;;4.80;;
46507;SDS011;32223;53.654;10.014;2023-11-19T08:49:45;26.92;;;4.95;;
46507;SDS011;32223;53.654;10.014;2023-11-19T08:52:11;29.25;;;4.95;;
46507;SDS011;32223;53.654;10.014;2023-11-19T08:54:37;31.38;;;5.30;;
46507;SDS011;32223;53.654;10.014;2023-11-19T08:57:03;23.38;;;6.15;;
46507;SDS011;32223;53.654;10.014;2023-11-19T08:59:29;20.50;;;5.32;;
46507;SDS011;32223;53.654;10.014;2023-11-19T09:01:55;27.35;;;6.22;;
46507;SDS011;32223;53.654;10.014;2023-11-19T09:04:21;27.10;;;6.15;;
46507;SDS011;32223;53.654;10.014;2023-11-19T09:06:48;23.30;;;5.95;;
46507;SDS011;32223;53.654;10.014;2023-11-19T09:09:14;24.13;;;5.60;;
46507;SDS011;32223;53.654;10.014;2023-11-19T09:11:39;23.63;;;6.72;;
46507;SDS011;32223;53.654;10.014;2023-11-19T09:14:05;28.70;;;4.63;;
46507;SDS011;32223;53.654;10.014;2023-11-19T09:16:31;36.05;;;10.80;;
46507;SDS011;32223;53.654;10.014;2023-11-19T09:18:57;29.60;;;8.52;;
46507;SDS011;32223;53.654;10.014;2023-11-19T09:21:24;29.45;;;5.57;;
46507;SDS011;32223;53.654;10.014;2023-11-19T09:23:50;25.60;;;6.00;;
46507;SDS011;32223;53.654;10.014;2023-11-19T09:26:16;21.38;;;6.50;;
46507;SDS011;32223;53.654;10.014;2023-11-19T09:28:41;31.38;;;5.07;;
46507;SDS011;32223;53.654;10.014;2023-11-19T09:31:16;30.45;;;5.53;;
46507;SDS011;32223;53.654;10.014;2023-11-19T09:33:43;28.73;;;4.93;;
46507;SDS011;32223;53.654;10.014;2023-11-19T09:36:09;25.83;;;5.53;;
46507;SDS011;32223;53.654;10.014;2023-11-19T09:38:38;24.77;;;5.00;;
46507;SDS011;32223;53.654;10.014;2023-11-19T09:41:05;30.77;;;7.07;;
46507;SDS011;32223;53.654;10.014;2023-11-19T09:43:34;32.97;;;7.18;;
46507;SDS011;32223;53.654;10.014;2023-11-19T09:46:05;28.75;;;5.60;;
46507;SDS011;32223;53.654;10.014;2023-11-19T09:48:35;33.33;;;7.80;;
46507;SDS011;32223;53.654;10.014;2023-11-19T09:51:02;36.92;;;9.90;;
46507;SDS011;32223;53.654;10.014;2023-11-19T09:53:29;27.77;;;5.53;;
46507;SDS011;32223;53.654;10.014;2023-11-19T09:55:55;27.50;;;7.03;;
46507;SDS011;32223;53.654;10.014;2023-11-19T09:58:22;26.92;;;5.32;;
46507;SDS011;32223;53.654;10.014;2023-11-19T10:00:48;18.38;;;5.07;;
46507;SDS011;32223;53.654;10.014;2023-11-19T10:03:15;27.52;;;5.15;;
46507;SDS011;32223;53.654;10.014;2023-11-19T10:05:41;36.92;;;5.85;;
46507;SDS011;32223;53.654;10.014;2023-11-19T10:08:06;26.25;;;5.88;;
46507;SDS011;32223;53.654;10.014;2023-11-19T10:10:39;29.83;;;6.28;;
46507;SDS011;32223;53.654;10.014;2023-11-19T10:13:04;36.38;;;6.65;;
46507;SDS011;32223;53.654;10.014;2023-11-19T10:15:36;26.00;;;4.95;;
46507;SDS011;32223;53.654;10.014;2023-11-19T10:18:02;33.05;;;6.22;;
46507;SDS011;32223;53.654;10.014;2023-11-19T10:20:37;23.83;;;5.55;;
46507;SDS011;32223;53.654;10.014;2023-11-19T10:23:06;31.83;;;6.50;;
46507;SDS011;32223;53.654;10.014;2023-11-19T10:25:32;28.50;;;7.22;;
46507;SDS011;32223;53.654;10.014;2023-11-19T10:27:58;25.48;;;5.38;;
46507;SDS011;32223;53.654;10.014;2023-11-19T10:33:12;30.77;;;5.95;;
46507;SDS011;32223;53.654;10.014;2023-11-19T10:35:57;23.80;;;5.25;;
46507;SDS011;32223;53.654;10.014;2023-11-19T10:38:24;21.27;;;5.03;;
46507;SDS011;32223;53.654;10.014;2023-11-19T10:40:51;24.60;;;5.57;;
46507;SDS011;32223;53.654;10.014;2023-11-19T10:43:17;26.27;;;4.95;;
46507;SDS011;32223;53.654;10.014;2023-11-19T10:45:50;21.55;;;5.53;;
46507;SDS011;32223;53.654;10.014;2023-11-19T10:48:17;21.50;;;5.57;;
46507;SDS011;32223;53.654;10.014;2023-11-19T10:50:43;20.50;;;4.65;;
46507;SDS011;32223;53.654;10.014;2023-11-19T10:53:11;30.52;;;7.50;;
46507;SDS011;32223;53.654;10.014;2023-11-19T10:55:43;26.27;;;4.18;;
46507;SDS011;32223;53.654;10.014;2023-11-19T10:58:12;26.70;;;4.90;;
46507;SDS011;32223;53.654;10.014;2023-11-19T11:00:51;16.50;;;4.63;;
46507;SDS011;32223;53.654;10.014;2023-11-19T11:03:21;24.50;;;4.72;;
46507;SDS011;32223;53.654;10.014;2023-11-19T11:05:50;16.52;;;5.07;;
46507;SDS011;32223;53.654;10.014;2023-11-19T11:08:17;23.00;;;6.13;;
46507;SDS011;32223;53.654;10.014;2023-11-19T11:13:19;27.10;;;5.35;;
46507;SDS011;32223;53.654;10.014;2023-11-19T11:15:47;23.85;;;4.78;;
46507;SDS011;32223;53.654;10.014;2023-11-19T11:18:14;20.88;;;5.93;;
46507;SDS011;32223;53.654;10.014;2023-11-19T11:20:40;28.52;;;5.22;;
46507;SDS011;32223;53.654;10.014;2023-11-19T11:26:00;30.95;;;6.32;;
46507;SDS011;32223;53.654;10.014;2023-11-19T11:28:48;25.42;;;5.88;;
46507;SDS011;32223;53.654;10.014;2023-11-19T11:39:57;24.23;;;5.22;;
46507;SDS011;32223;53.654;10.014;2023-11-19T11:45:04;28.98;;;7.28;;
46507;SDS011;32223;53.654;10.014;2023-11-19T11:50:08;35.70;;;6.10;;
46507;SDS011;32223;53.654;10.014;2023-11-19T11:53:12;27.77;;;4.45;;
46507;SDS011;32223;53.654;10.014;2023-11-19T11:55:35;21.35;;;5.47;;
46507;SDS011;32223;53.654;10.014;2023-11-19T11:58:19;22.42;;;4.38;;
46507;SDS011;32223;53.654;10.014;2023-11-19T12:00:46;31.90;;;6.35;;
46507;SDS011;32223;53.654;10.014;2023-11-19T12:03:12;25.02;;;5.10;;
46507;SDS011;32223;53.654;10.014;2023-11-19T12:05:38;23.80;;;5.25;;
46507;SDS011;32223;53.654;10.014;2023-11-19T12:08:07;26.10;;;5.55;;
46507;SDS011;32223;53.654;10.014;2023-11-19T12:10:45;27.50;;;6.75;;
46507;SDS011;32223;53.654;10.014;2023-11-19T12:13:16;25.83;;;5.03;;
46507;SDS011;32223;53.654;10.014;2023-11-19T12:18:28;27.23;;;7.53;;
46507;SDS011;32223;53.654;10.014;2023-11-19T12:20:55;26.75;;;4.47;;
46507;SDS011;32223;53.654;10.014;2023-11-19T12:23:24;25.65;;;6.07;;
46507;SDS011;32223;53.654;10.014;2023-11-19T12:25:50;30.70;;;6.57;;
46507;SDS011;32223;53.654;10.014;2023-11-19T12:28:16;23.40;;;4.85;;
46507;SDS011;32223;53.654;10.014;2023-11-19T12:30:42;25.40;;;4.45;;
46507;SDS011;32223;53.654;10.014;2023-11-19T12:33:09;18.75;;;5.32;;
46507;SDS011;32223;53.654;10.014;2023-11-19T12:35:42;22.75;;;5.32;;
46507;SDS011;32223;53.654;10.014;2023-11-19T12:38:24;22.08;;;5.22;;
46507;SDS011;32223;53.654;10.014;2023-11-19T12:43:29;27.60;;;4.88;;
46507;SDS011;32223;53.654;10.014;2023-11-19T12:45:54;22.55;;;5.05;;
46507;SDS011;32223;53.654;10.014;2023-11-19T12:48:20;31.33;;;5.95;;
46507;SDS011;32223;53.654;10.014;2023-11-19T12:50:52;23.67;;;4.88;;
46507;SDS011;32223;53.654;10.014;2023-11-19T12:53:19;29.95;;;5.10;;
46507;SDS011;32223;53.654;10.014;2023-11-19T12:55:45;20.48;;;6.00;;
46507;SDS011;32223;53.654;10.014;2023-11-19T12:58:27;20.65;;;4.53;;
46507;SDS011;32223;53.654;10.014;2023-11-19T13:01:02;23.10;;;5.07;;
46507;SDS011;32223;53.654;10.014;2023-11-19T13:03:33;24.42;;;5.95;;
46507;SDS011;32223;53.654;10.014;2023-11-19T13:08:43;18.05;;;4.20;;
46507;SDS011;32223;53.654;10.014;2023-11-19T13:11:15;23.92;;;5.53;;
46507;SDS011;32223;53.654;10.014;2023-11-19T13:13:58;23.10;;;5.68;;
46507;SDS011;32223;53.654;10.014;2023-11-19T13:16:29;32.85;;;5.32;;
46507;SDS011;32223;53.654;10.014;2023-11-19T13:18:56;23.60;;;5.57;;
46507;SDS011;32223;53.654;10.014;2023-11-19T13:21:22;24.35;;;5.85;;
46507;SDS011;32223;53.654;10.014;2023-11-19T13:23:48;30.13;;;5.82;;
46507;SDS011;32223;53.654;10.014;2023-11-19T13:26:14;27.60;;;5.05;;
46507;SDS011;32223;53.654;10.014;2023-11-19T13:28:39;23.27;;;5.40;;
46507;SDS011;32223;53.654;10.014;2023-11-19T13:31:05;23.17;;;5.63;;
46507;SDS011;32223;53.654;10.014;2023-11-19T13:33:31;30.65;;;6.28;;
46507;SDS011;32223;53.654;10.014;2023-11-19T13:35:56;30.60;;;7.38;;
46507;SDS011;32223;53.654;10.014;2023-11-19T13:38:22;20.15;;;5.68;;
46507;SDS011;32223;53.654;10.014;2023-11-19T13:40:49;20.90;;;4.95;;
46507;SDS011;32223;53.654;10.014;2023-11-19T13:43:14;24.70;;;5.90;;
46507;SDS011;32223;53.654;10.014;2023-11-19T13:45:40;23.52;;;6.03;;
46507;SDS011;32223;53.654;10.014;2023-11-19T13:48:06;16.52;;;4.72;;
46507;SDS011;32223;53.654;10.014;2023-11-19T13:50:31;26.77;;;5.78;;
46507;SDS011;32223;53.654;10.014;2023-11-19T13:52:59;23.92;;;5.88;;
46507;SDS011;32223;53.654;10.014;2023-11-19T13:55:24;25.08;;;5.18;;
46507;SDS011;32223;53.654;10.014;2023-11-19T13:57:50;23.27;;;5.10;;
46507;SDS011;32223;53.654;10.014;2023-11-19T14:00:16;27.85;;;4.80;;
46507;SDS011;32223;53.654;10.014;2023-11-19T14:02:44;27.73;;;6.47;;
46507;SDS011;32223;53.654;10.014;2023-11-19T14:05:10;22.92;;;4.78;;
46507;SDS011;32223;53.654;10.014;2023-11-19T14:07:37;37.50;;;4.70;;
46507;SDS011;32223;53.654;10.014;2023-11-19T14:10:03;27.13;;;5.00;;
46507;SDS011;32223;53.654;10.014;2023-11-19T14:12:30;29.48;;;6.20;;
46507;SDS011;32223;53.654;10.014;2023-11-19T14:14:58;20.42;;;6.75;;
46507;SDS011;32223;53.654;10.014;2023-11-19T14:17:25;20.77;;;4.97;;
46507;SDS011;32223;53.654;10.014;2023-11-19T14:19:51;21.90;;;5.13;;
46507;SDS011;32223;53.654;10.014;2023-11-19T14:22:16;22.52;;;4.35;;
46507;SDS011;32223;53.654;10.014;2023-11-19T14:24:42;29.70;;;6.60;;
46507;SDS011;32223;53.654;10.014;2023-11-19T14:27:09;20.35;;;5.30;;
46507;SDS011;32223;53.654;10.014;2023-11-19T14:29:35;27.85;;;6.25;;
46507;SDS011;32223;53.654;10.014;2023-11-19T14:32:01;27.90;;;5.45;;
46507;SDS011;32223;53.654;10.014;2023-11-19T14:34:31;23.88;;;5.00;;
46507;SDS011;32223;53.654;10.014;2023-11-19T14:36:57;22.77;;;4.40;;
46507;SDS011;32223;53.654;10.014;2023-11-19T14:39:23;17.63;;;4.53;;
46507;SDS011;32223;53.654;10.014;2023-11-19T14:41:49;19.60;;;4.75;;
46507;SDS011;32223;53.654;10.014;2023-11-19T14:44:15;14.38;;;3.25;;
46507;SDS011;32223;53.654;10.014;2023-11-19T14:46:41;12.65;;;3.40;;
46507;SDS011;32223;53.654;10.014;2023-11-19T14:49:07;17.48;;;4.20;;
46507;SDS011;32223;53.654;10.014;2023-11-19T14:51:39;16.50;;;3.67;;
46507;SDS011;32223;53.654;10.014;2023-11-19T14:54:05;18.25;;;3.78;;
46507;SDS011;32223;53.654;10.014;2023-11-19T14:56:30;8.70;;;2.45;;